sensor_id;sensor_type;location;lat;lon;timestamp;pressure;altitude;pressure_sealevel;temperature;humidity
37078;BME280;22989;55.998;37.212;2023-06-22T00:00:52;116983.66;;;-145.39;53.08
37078;BME280;22989;55.998;37.212;2023-06-22T00:03:17;116983.66;;;-145.39;53.06
37078;BME280;22989;55.998;37.212;2023-06-22T00:05:43;116983.66;;;-145.39;53.10
37078;BME280;22989;55.998;37.212;2023-06-22T00:08:09;116983.66;;;-145.39;53.22
37078;BME280;22989;55.998;37.212;2023-06-22T00:10:34;116983.66;;;-145.39;53.38
37078;BME280;22989;55.998;37.212;2023-06-22T00:13:00;116983.66;;;-145.39;53.39
37078;BME280;22989;55.998;37.212;2023-06-22T00:15:26;116983.66;;;-145.39;53.32
37078;BME280;22989;55.998;37.212;2023-06-22T00:17:51;116983.66;;;-145.39;53.29
37078;BME280;22989;55.998;37.212;2023-06-22T00:20:17;116983.66;;;-145.39;53.33
37078;BME280;22989;55.998;37.212;2023-06-22T00:22:43;116983.66;;;-145.39;53.36
37078;BME280;22989;55.998;37.212;2023-06-22T00:25:09;116983.66;;;-145.39;53.42
37078;BME280;22989;55.998;37.212;2023-06-22T00:27:35;116983.66;;;-145.39;53.64
37078;BME280;22989;55.998;37.212;2023-06-22T00:30:01;116983.66;;;-145.39;53.64
37078;BME280;22989;55.998;37.212;2023-06-22T00:32:27;116983.66;;;-145.39;53.66
37078;BME280;22989;55.998;37.212;2023-06-22T00:34:53;116983.66;;;-145.39;53.63
37078;BME280;22989;55.998;37.212;2023-06-22T00:37:18;116983.66;;;-145.39;53.76
37078;BME280;22989;55.998;37.212;2023-06-22T00:39:44;116983.66;;;-145.39;53.86
37078;BME280;22989;55.998;37.212;2023-06-22T00:42:10;116983.66;;;-145.39;53.88
37078;BME280;22989;55.998;37.212;2023-06-22T00:44:36;116983.66;;;-145.39;53.97
37078;BME280;22989;55.998;37.212;2023-06-22T00:47:01;116983.66;;;-145.39;54.05
37078;BME280;22989;55.998;37.212;2023-06-22T00:49:27;116983.66;;;-145.39;54.17
37078;BME280;22989;55.998;37.212;2023-06-22T00:51:53;116983.66;;;-145.39;54.15
37078;BME280;22989;55.998;37.212;2023-06-22T00:54:19;116983.66;;;-145.39;54.26
37078;BME280;22989;55.998;37.212;2023-06-22T00:56:55;116983.66;;;-145.39;54.22
37078;BME280;22989;55.998;37.212;2023-06-22T00:59:25;116983.66;;;-145.39;54.21
37078;BME280;22989;55.998;37.212;2023-06-22T01:01:51;116983.66;;;-145.39;54.27
37078;BME280;22989;55.998;37.212;2023-06-22T01:04:17;116983.66;;;-145.39;54.20
37078;BME280;22989;55.998;37.212;2023-06-22T01:09:39;116983.66;;;-145.39;54.30
37078;BME280;22989;55.998;37.212;2023-06-22T01:12:12;116983.66;;;-145.39;54.38
37078;BME280;22989;55.998;37.212;2023-06-22T01:14:41;116983.66;;;-145.39;54.37
37078;BME280;22989;55.998;37.212;2023-06-22T01:17:07;116983.66;;;-145.39;54.42
37078;BME280;22989;55.998;37.212;2023-06-22T01:19:49;116983.66;;;-145.39;54.49
37078;BME280;22989;55.998;37.212;2023-06-22T01:22:22;116983.66;;;-145.39;54.56
37078;BME280;22989;55.998;37.212;2023-06-22T01:29:56;116983.66;;;-145.39;54.50
37078;BME280;22989;55.998;37.212;2023-06-22T01:32:29;116983.66;;;-145.39;54.58
37078;BME280;22989;55.998;37.212;2023-06-22T01:34:57;116983.66;;;-145.39;54.46
37078;BME280;22989;55.998;37.212;2023-06-22T01:37:23;116983.66;;;-145.39;54.36
37078;BME280;22989;55.998;37.212;2023-06-22T01:39:50;116983.66;;;-145.39;54.31
37078;BME280;22989;55.998;37.212;2023-06-22T01:42:16;116983.66;;;-145.39;54.29
37078;BME280;22989;55.998;37.212;2023-06-22T01:44:42;116983.66;;;-145.39;54.13
37078;BME280;22989;55.998;37.212;2023-06-22T01:47:08;116983.66;;;-145.39;53.91
37078;BME280;22989;55.998;37.212;2023-06-22T01:49:35;116983.66;;;-145.39;53.81
37078;BME280;22989;55.998;37.212;2023-06-22T01:52:00;116983.66;;;-145.39;53.86
37078;BME280;22989;55.998;37.212;2023-06-22T01:54:27;116983.66;;;-145.39;53.66
37078;BME280;22989;55.998;37.212;2023-06-22T01:56:53;116983.66;;;-145.39;53.61
37078;BME280;22989;55.998;37.212;2023-06-22T01:59:25;116983.66;;;-145.39;53.42
37078;BME280;22989;55.998;37.212;2023-06-22T02:01:57;116983.66;;;-145.39;53.38
37078;BME280;22989;55.998;37.212;2023-06-22T02:04:26;116983.66;;;-145.39;53.27
37078;BME280;22989;55.998;37.212;2023-06-22T02:06:54;116983.66;;;-145.39;53.13
37078;BME280;22989;55.998;37.212;2023-06-22T02:09:22;116983.66;;;-145.39;53.06
37078;BME280;22989;55.998;37.212;2023-06-22T02:11:49;116983.66;;;-145.39;52.95
37078;BME280;22989;55.998;37.212;2023-06-22T02:14:17;116983.66;;;-145.39;52.83
37078;BME280;22989;55.998;37.212;2023-06-22T02:16:43;116983.66;;;-145.39;52.73
37078;BME280;22989;55.998;37.212;2023-06-22T02:19:08;116983.66;;;-145.39;52.68
37078;BME280;22989;55.998;37.212;2023-06-22T02:21:34;116983.66;;;-145.39;52.56
37078;BME280;22989;55.998;37.212;2023-06-22T02:23:59;116983.66;;;-145.39;52.42
37078;BME280;22989;55.998;37.212;2023-06-22T02:26:25;116983.66;;;-145.39;52.24
37078;BME280;22989;55.998;37.212;2023-06-22T02:28:52;116983.66;;;-145.39;51.93
37078;BME280;22989;55.998;37.212;2023-06-22T02:31:18;116983.66;;;-145.39;51.95
37078;BME280;22989;55.998;37.212;2023-06-22T02:33:44;116983.66;;;-145.39;51.72
37078;BME280;22989;55.998;37.212;2023-06-22T02:36:10;116983.66;;;-145.39;51.75
37078;BME280;22989;55.998;37.212;2023-06-22T02:38:38;116983.66;;;-145.39;51.46
37078;BME280;22989;55.998;37.212;2023-06-22T02:41:10;116983.66;;;-145.39;51.44
37078;BME280;22989;55.998;37.212;2023-06-22T02:43:38;116983.66;;;-145.39;51.18
37078;BME280;22989;55.998;37.212;2023-06-22T02:46:03;116983.66;;;-145.39;50.73
37078;BME280;22989;55.998;37.212;2023-06-22T02:48:29;116983.66;;;-145.39;50.31
37078;BME280;22989;55.998;37.212;2023-06-22T02:50:55;116983.66;;;-145.39;49.77
37078;BME280;22989;55.998;37.212;2023-06-22T02:53:21;116983.66;;;-145.39;49.30
37078;BME280;22989;55.998;37.212;2023-06-22T02:55:47;116983.66;;;-145.39;48.61
37078;BME280;22989;55.998;37.212;2023-06-22T02:58:12;116983.66;;;-145.39;47.92
37078;BME280;22989;55.998;37.212;2023-06-22T03:00:38;116983.66;;;-145.39;47.26
37078;BME280;22989;55.998;37.212;2023-06-22T03:03:04;116983.66;;;-145.39;46.76
37078;BME280;22989;55.998;37.212;2023-06-22T03:05:30;116983.66;;;-145.39;46.07
37078;BME280;22989;55.998;37.212;2023-06-22T03:07:58;116983.66;;;-145.39;45.73
37078;BME280;22989;55.998;37.212;2023-06-22T03:10:24;116983.66;;;-145.39;45.22
37078;BME280;22989;55.998;37.212;2023-06-22T03:12:50;116983.66;;;-145.39;44.76
37078;BME280;22989;55.998;37.212;2023-06-22T03:15:15;116983.66;;;-145.39;44.30
37078;BME280;22989;55.998;37.212;2023-06-22T03:17:42;116983.66;;;-145.39;44.00
37078;BME280;22989;55.998;37.212;2023-06-22T03:20:08;116983.66;;;-145.39;43.83
37078;BME280;22989;55.998;37.212;2023-06-22T03:22:35;116983.66;;;-145.39;43.54
37078;BME280;22989;55.998;37.212;2023-06-22T03:25:01;116983.66;;;-145.39;43.21
37078;BME280;22989;55.998;37.212;2023-06-22T03:27:28;116983.66;;;-145.39;42.78
37078;BME280;22989;55.998;37.212;2023-06-22T03:29:54;116983.66;;;-145.39;42.26
37078;BME280;22989;55.998;37.212;2023-06-22T03:32:19;116983.66;;;-145.39;42.10
37078;BME280;22989;55.998;37.212;2023-06-22T03:34:45;116983.66;;;-145.39;41.64
37078;BME280;22989;55.998;37.212;2023-06-22T03:37:13;116983.66;;;-145.39;41.16
37078;BME280;22989;55.998;37.212;2023-06-22T03:39:40;116983.66;;;-145.39;41.33
37078;BME280;22989;55.998;37.212;2023-06-22T03:42:06;116983.66;;;-145.39;40.72
37078;BME280;22989;55.998;37.212;2023-06-22T03:44:32;116983.66;;;-145.39;38.12
37078;BME280;22989;55.998;37.212;2023-06-22T03:46:58;116983.66;;;-145.39;35.80
37078;BME280;22989;55.998;37.212;2023-06-22T03:49:23;116983.66;;;-145.39;34.15
37078;BME280;22989;55.998;37.212;2023-06-22T03:51:49;116983.66;;;-145.39;33.40
37078;BME280;22989;55.998;37.212;2023-06-22T03:54:14;116983.66;;;-145.39;32.53
37078;BME280;22989;55.998;37.212;2023-06-22T03:56:40;116983.66;;;-145.39;31.57
37078;BME280;22989;55.998;37.212;2023-06-22T03:59:05;116983.66;;;-145.39;30.50
37078;BME280;22989;55.998;37.212;2023-06-22T04:01:30;116983.66;;;-145.39;28.86
37078;BME280;22989;55.998;37.212;2023-06-22T04:03:56;116983.66;;;-145.39;28.51
37078;BME280;22989;55.998;37.212;2023-06-22T04:06:21;116983.66;;;-145.39;28.46
37078;BME280;22989;55.998;37.212;2023-06-22T04:08:47;116983.66;;;-145.39;28.13
37078;BME280;22989;55.998;37.212;2023-06-22T04:11:15;116983.66;;;-145.39;28.34
37078;BME280;22989;55.998;37.212;2023-06-22T04:13:41;116983.66;;;-145.39;29.11
37078;BME280;22989;55.998;37.212;2023-06-22T04:16:07;116983.66;;;-145.39;28.52
37078;BME280;22989;55.998;37.212;2023-06-22T04:18:32;116983.66;;;-145.39;28.30
37078;BME280;22989;55.998;37.212;2023-06-22T04:20:57;116983.66;;;-145.39;28.16
37078;BME280;22989;55.998;37.212;2023-06-22T04:23:23;116983.66;;;-145.39;28.06
37078;BME280;22989;55.998;37.212;2023-06-22T04:25:48;116983.66;;;-145.39;28.86
37078;BME280;22989;55.998;37.212;2023-06-22T04:28:14;116983.66;;;-145.39;28.82
37078;BME280;22989;55.998;37.212;2023-06-22T04:30:39;116983.66;;;-145.39;27.85
37078;BME280;22989;55.998;37.212;2023-06-22T04:33:14;116983.66;;;-145.39;28.28
37078;BME280;22989;55.998;37.212;2023-06-22T04:35:40;116983.66;;;-145.39;27.65
37078;BME280;22989;55.998;37.212;2023-06-22T04:38:09;116983.66;;;-145.39;28.66
37078;BME280;22989;55.998;37.212;2023-06-22T04:40:34;116983.66;;;-145.39;27.75
37078;BME280;22989;55.998;37.212;2023-06-22T04:43:00;116983.66;;;-145.39;27.63
37078;BME280;22989;55.998;37.212;2023-06-22T04:45:28;116983.66;;;-145.39;27.49
37078;BME280;22989;55.998;37.212;2023-06-22T04:47:54;116983.66;;;-145.39;26.72
37078;BME280;22989;55.998;37.212;2023-06-22T04:50:19;116983.66;;;-145.39;25.64
37078;BME280;22989;55.998;37.212;2023-06-22T04:52:47;116983.66;;;-145.39;24.74
37078;BME280;22989;55.998;37.212;2023-06-22T04:55:12;116983.66;;;-145.39;23.38
37078;BME280;22989;55.998;37.212;2023-06-22T04:57:46;116983.66;;;-145.39;23.03
37078;BME280;22989;55.998;37.212;2023-06-22T05:00:18;116983.66;;;-145.39;22.47
37078;BME280;22989;55.998;37.212;2023-06-22T05:02:48;116983.66;;;-145.39;21.75
37078;BME280;22989;55.998;37.212;2023-06-22T05:05:14;116983.66;;;-145.39;21.55
37078;BME280;22989;55.998;37.212;2023-06-22T05:07:41;116983.66;;;-145.39;21.49
37078;BME280;22989;55.998;37.212;2023-06-22T05:10:08;116983.66;;;-145.39;22.28
37078;BME280;22989;55.998;37.212;2023-06-22T05:12:34;116983.66;;;-145.39;21.88
37078;BME280;22989;55.998;37.212;2023-06-22T05:15:00;116983.66;;;-145.39;20.61
37078;BME280;22989;55.998;37.212;2023-06-22T05:17:26;116983.66;;;-145.39;20.13
37078;BME280;22989;55.998;37.212;2023-06-22T05:19:52;116983.66;;;-145.39;19.63
37078;BME280;22989;55.998;37.212;2023-06-22T05:22:18;116983.66;;;-145.39;19.70
37078;BME280;22989;55.998;37.212;2023-06-22T05:24:43;116983.66;;;-145.39;20.05
37078;BME280;22989;55.998;37.212;2023-06-22T05:27:10;116983.66;;;-145.39;19.29
37078;BME280;22989;55.998;37.212;2023-06-22T05:29:38;116983.66;;;-145.39;19.75
37078;BME280;22989;55.998;37.212;2023-06-22T05:32:04;116983.66;;;-145.39;19.80
37078;BME280;22989;55.998;37.212;2023-06-22T05:34:30;116983.66;;;-145.39;18.95
37078;BME280;22989;55.998;37.212;2023-06-22T05:36:55;116983.66;;;-145.39;18.95
37078;BME280;22989;55.998;37.212;2023-06-22T05:39:21;116983.66;;;-145.39;19.62
37078;BME280;22989;55.998;37.212;2023-06-22T05:41:46;116983.66;;;-145.39;19.52
37078;BME280;22989;55.998;37.212;2023-06-22T05:44:12;116983.66;;;-145.39;19.78
37078;BME280;22989;55.998;37.212;2023-06-22T05:46:40;116983.66;;;-145.39;20.67
37078;BME280;22989;55.998;37.212;2023-06-22T05:49:10;116983.66;;;-145.39;19.92
37078;BME280;22989;55.998;37.212;2023-06-22T05:51:35;116983.66;;;-145.39;19.13
37078;BME280;22989;55.998;37.212;2023-06-22T05:54:01;116983.66;;;-145.39;19.27
37078;BME280;22989;55.998;37.212;2023-06-22T05:56:26;116983.66;;;-145.39;18.66
37078;BME280;22989;55.998;37.212;2023-06-22T05:58:51;116983.66;;;-145.39;18.11
37078;BME280;22989;55.998;37.212;2023-06-22T06:01:17;116983.66;;;-145.39;18.42
37078;BME280;22989;55.998;37.212;2023-06-22T06:03:42;116983.66;;;-145.39;18.19
37078;BME280;22989;55.998;37.212;2023-06-22T06:06:09;116983.66;;;-145.39;18.16
37078;BME280;22989;55.998;37.212;2023-06-22T06:08:36;116983.66;;;-145.39;18.04
37078;BME280;22989;55.998;37.212;2023-06-22T06:11:02;116983.66;;;-145.39;17.93
37078;BME280;22989;55.998;37.212;2023-06-22T06:13:27;116983.66;;;-145.39;17.79
37078;BME280;22989;55.998;37.212;2023-06-22T06:15:53;116983.66;;;-145.39;17.94
37078;BME280;22989;55.998;37.212;2023-06-22T06:18:20;116983.66;;;-145.39;17.45
37078;BME280;22989;55.998;37.212;2023-06-22T06:20:45;116983.66;;;-145.39;17.28
37078;BME280;22989;55.998;37.212;2023-06-22T06:23:11;116983.66;;;-145.39;17.76
37078;BME280;22989;55.998;37.212;2023-06-22T06:25:36;116983.66;;;-145.39;17.38
37078;BME280;22989;55.998;37.212;2023-06-22T06:28:02;116983.66;;;-145.39;17.69
37078;BME280;22989;55.998;37.212;2023-06-22T06:30:28;116983.66;;;-145.39;18.58
37078;BME280;22989;55.998;37.212;2023-06-22T06:32:54;116983.66;;;-145.39;19.20
37078;BME280;22989;55.998;37.212;2023-06-22T06:35:19;116983.66;;;-145.39;18.29
37078;BME280;22989;55.998;37.212;2023-06-22T06:37:46;116983.66;;;-145.39;19.66
37078;BME280;22989;55.998;37.212;2023-06-22T06:40:12;116983.66;;;-145.39;19.43
37078;BME280;22989;55.998;37.212;2023-06-22T06:42:38;116983.66;;;-145.39;20.14
37078;BME280;22989;55.998;37.212;2023-06-22T06:45:14;116983.66;;;-145.39;20.78
37078;BME280;22989;55.998;37.212;2023-06-22T06:47:40;116983.66;;;-145.39;20.88
37078;BME280;22989;55.998;37.212;2023-06-22T06:50:06;116983.66;;;-145.39;21.14
37078;BME280;22989;55.998;37.212;2023-06-22T06:52:31;116983.66;;;-145.39;21.48
37078;BME280;22989;55.998;37.212;2023-06-22T06:54:57;116983.66;;;-145.39;21.85
37078;BME280;22989;55.998;37.212;2023-06-22T06:57:23;116983.66;;;-145.39;21.66
37078;BME280;22989;55.998;37.212;2023-06-22T06:59:48;116983.66;;;-145.39;21.83
37078;BME280;22989;55.998;37.212;2023-06-22T07:02:14;116983.66;;;-145.39;21.65
37078;BME280;22989;55.998;37.212;2023-06-22T07:04:40;116983.66;;;-145.39;21.69
37078;BME280;22989;55.998;37.212;2023-06-22T07:07:06;116983.66;;;-145.39;21.63
37078;BME280;22989;55.998;37.212;2023-06-22T07:09:31;116983.66;;;-145.39;21.44
37078;BME280;22989;55.998;37.212;2023-06-22T07:11:57;116983.66;;;-145.39;21.28
37078;BME280;22989;55.998;37.212;2023-06-22T07:14:22;116983.66;;;-145.39;21.58
37078;BME280;22989;55.998;37.212;2023-06-22T07:16:48;116983.66;;;-145.39;21.95
37078;BME280;22989;55.998;37.212;2023-06-22T07:19:13;116983.66;;;-145.39;21.75
37078;BME280;22989;55.998;37.212;2023-06-22T07:21:39;116983.66;;;-145.39;21.86
37078;BME280;22989;55.998;37.212;2023-06-22T07:24:08;116983.66;;;-145.39;21.81
37078;BME280;22989;55.998;37.212;2023-06-22T07:26:33;116983.66;;;-145.39;21.43
37078;BME280;22989;55.998;37.212;2023-06-22T07:28:59;116983.66;;;-145.39;21.40
37078;BME280;22989;55.998;37.212;2023-06-22T07:31:25;116983.66;;;-145.39;21.90
37078;BME280;22989;55.998;37.212;2023-06-22T07:33:51;116983.66;;;-145.39;22.28
37078;BME280;22989;55.998;37.212;2023-06-22T07:36:16;116983.66;;;-145.39;22.95
37078;BME280;22989;55.998;37.212;2023-06-22T07:38:42;116983.66;;;-145.39;23.01
37078;BME280;22989;55.998;37.212;2023-06-22T07:41:08;116983.66;;;-145.39;23.64
37078;BME280;22989;55.998;37.212;2023-06-22T07:43:33;116983.66;;;-145.39;23.76
37078;BME280;22989;55.998;37.212;2023-06-22T07:46:02;116983.66;;;-145.39;23.75
37078;BME280;22989;55.998;37.212;2023-06-22T07:48:28;116983.66;;;-145.39;23.72
37078;BME280;22989;55.998;37.212;2023-06-22T07:50:54;116983.66;;;-145.39;23.87
37078;BME280;22989;55.998;37.212;2023-06-22T07:53:19;116983.66;;;-145.39;23.19
37078;BME280;22989;55.998;37.212;2023-06-22T07:55:45;116983.66;;;-145.39;23.17
37078;BME280;22989;55.998;37.212;2023-06-22T07:58:10;116983.66;;;-145.39;22.96
37078;BME280;22989;55.998;37.212;2023-06-22T08:00:36;116983.66;;;-145.39;22.93
37078;BME280;22989;55.998;37.212;2023-06-22T08:03:02;116983.66;;;-145.39;23.41
37078;BME280;22989;55.998;37.212;2023-06-22T08:05:28;116983.66;;;-145.39;23.60
37078;BME280;22989;55.998;37.212;2023-06-22T08:07:54;116983.66;;;-145.39;24.12
37078;BME280;22989;55.998;37.212;2023-06-22T08:10:21;116983.66;;;-145.39;24.32
37078;BME280;22989;55.998;37.212;2023-06-22T08:12:46;116983.66;;;-145.39;24.22
37078;BME280;22989;55.998;37.212;2023-06-22T08:15:12;116983.66;;;-145.39;24.28
37078;BME280;22989;55.998;37.212;2023-06-22T08:17:38;116983.66;;;-145.39;24.47
37078;BME280;22989;55.998;37.212;2023-06-22T08:20:04;116983.66;;;-145.39;24.45
37078;BME280;22989;55.998;37.212;2023-06-22T08:22:35;116983.66;;;-145.39;24.64
37078;BME280;22989;55.998;37.212;2023-06-22T08:25:02;116983.66;;;-145.39;24.66
37078;BME280;22989;55.998;37.212;2023-06-22T08:27:29;116983.66;;;-145.39;24.16
37078;BME280;22989;55.998;37.212;2023-06-22T08:29:57;116983.66;;;-145.39;24.12
37078;BME280;22989;55.998;37.212;2023-06-22T08:32:27;116983.66;;;-145.39;24.78
37078;BME280;22989;55.998;37.212;2023-06-22T08:34:53;116983.66;;;-145.39;24.89
37078;BME280;22989;55.998;37.212;2023-06-22T08:37:18;116983.66;;;-145.39;24.95
37078;BME280;22989;55.998;37.212;2023-06-22T08:39:44;116983.66;;;-145.39;25.27
37078;BME280;22989;55.998;37.212;2023-06-22T08:42:09;116983.66;;;-145.39;25.10
37078;BME280;22989;55.998;37.212;2023-06-22T08:44:35;116983.66;;;-145.39;25.25
37078;BME280;22989;55.998;37.212;2023-06-22T08:47:00;116983.66;;;-145.39;25.60
37078;BME280;22989;55.998;37.212;2023-06-22T08:49:26;116983.66;;;-145.39;25.41
37078;BME280;22989;55.998;37.212;2023-06-22T08:51:51;116983.66;;;-145.39;25.57
37078;BME280;22989;55.998;37.212;2023-06-22T08:54:19;116983.66;;;-145.39;25.90
37078;BME280;22989;55.998;37.212;2023-06-22T08:56:44;116983.66;;;-145.39;26.06
37078;BME280;22989;55.998;37.212;2023-06-22T08:59:09;116983.66;;;-145.39;26.45
37078;BME280;22989;55.998;37.212;2023-06-22T09:01:35;116983.66;;;-145.39;26.47
37078;BME280;22989;55.998;37.212;2023-06-22T09:04:00;116983.66;;;-145.39;26.44
37078;BME280;22989;55.998;37.212;2023-06-22T09:06:26;116983.66;;;-145.39;26.86
37078;BME280;22989;55.998;37.212;2023-06-22T09:08:51;116983.66;;;-145.39;26.71
37078;BME280;22989;55.998;37.212;2023-06-22T09:11:17;116983.66;;;-145.39;26.75
37078;BME280;22989;55.998;37.212;2023-06-22T09:13:42;116983.66;;;-145.39;26.83
37078;BME280;22989;55.998;37.212;2023-06-22T09:16:08;116983.66;;;-145.39;26.89
37078;BME280;22989;55.998;37.212;2023-06-22T09:18:34;116983.66;;;-145.39;26.85
37078;BME280;22989;55.998;37.212;2023-06-22T09:20:59;116983.66;;;-145.39;27.15
37078;BME280;22989;55.998;37.212;2023-06-22T09:23:25;116983.66;;;-145.39;27.17
37078;BME280;22989;55.998;37.212;2023-06-22T09:25:50;116983.66;;;-145.39;26.94
37078;BME280;22989;55.998;37.212;2023-06-22T09:28:16;116983.66;;;-145.39;27.02
37078;BME280;22989;55.998;37.212;2023-06-22T09:30:42;116983.66;;;-145.39;27.22
37078;BME280;22989;55.998;37.212;2023-06-22T09:33:08;116983.66;;;-145.39;27.33
37078;BME280;22989;55.998;37.212;2023-06-22T09:35:34;116983.66;;;-145.39;27.17
37078;BME280;22989;55.998;37.212;2023-06-22T09:37:59;116983.66;;;-145.39;27.18
37078;BME280;22989;55.998;37.212;2023-06-22T09:40:25;116983.66;;;-145.39;27.13
37078;BME280;22989;55.998;37.212;2023-06-22T09:42:50;116983.66;;;-145.39;27.28
37078;BME280;22989;55.998;37.212;2023-06-22T09:45:15;116983.66;;;-145.39;27.41
37078;BME280;22989;55.998;37.212;2023-06-22T09:47:41;116983.66;;;-145.39;27.26
37078;BME280;22989;55.998;37.212;2023-06-22T09:50:07;116983.66;;;-145.39;27.25
37078;BME280;22989;55.998;37.212;2023-06-22T09:52:33;116983.66;;;-145.39;27.32
37078;BME280;22989;55.998;37.212;2023-06-22T09:54:59;116983.66;;;-145.39;27.51
37078;BME280;22989;55.998;37.212;2023-06-22T09:57:24;116983.66;;;-145.39;27.28
37078;BME280;22989;55.998;37.212;2023-06-22T09:59:50;116983.66;;;-145.39;27.35
37078;BME280;22989;55.998;37.212;2023-06-22T10:02:15;116983.66;;;-145.39;27.44
37078;BME280;22989;55.998;37.212;2023-06-22T10:04:41;116983.66;;;-145.39;27.40
37078;BME280;22989;55.998;37.212;2023-06-22T10:07:07;116983.66;;;-145.39;27.43
37078;BME280;22989;55.998;37.212;2023-06-22T10:09:32;116983.66;;;-145.39;27.38
37078;BME280;22989;55.998;37.212;2023-06-22T10:11:58;116983.66;;;-145.39;27.59
37078;BME280;22989;55.998;37.212;2023-06-22T10:14:23;116983.66;;;-145.39;27.52
37078;BME280;22989;55.998;37.212;2023-06-22T10:16:51;116983.66;;;-145.39;27.38
37078;BME280;22989;55.998;37.212;2023-06-22T10:19:17;116983.66;;;-145.39;27.38
37078;BME280;22989;55.998;37.212;2023-06-22T10:21:43;116983.66;;;-145.39;27.34
37078;BME280;22989;55.998;37.212;2023-06-22T10:24:08;116983.66;;;-145.39;27.08
37078;BME280;22989;55.998;37.212;2023-06-22T10:26:35;116983.66;;;-145.39;27.15
37078;BME280;22989;55.998;37.212;2023-06-22T10:29:01;116983.66;;;-145.39;27.12
37078;BME280;22989;55.998;37.212;2023-06-22T10:31:26;116983.66;;;-145.39;27.08
37078;BME280;22989;55.998;37.212;2023-06-22T10:33:53;116983.66;;;-145.39;27.15
37078;BME280;22989;55.998;37.212;2023-06-22T10:36:18;116983.66;;;-145.39;27.23
37078;BME280;22989;55.998;37.212;2023-06-22T10:38:44;116983.66;;;-145.39;27.12
37078;BME280;22989;55.998;37.212;2023-06-22T10:41:10;116983.66;;;-145.39;27.03
37078;BME280;22989;55.998;37.212;2023-06-22T10:43:36;116983.66;;;-145.39;26.99
37078;BME280;22989;55.998;37.212;2023-06-22T10:46:01;116983.66;;;-145.39;26.95
37078;BME280;22989;55.998;37.212;2023-06-22T10:48:27;116983.66;;;-145.39;26.95
37078;BME280;22989;55.998;37.212;2023-06-22T10:50:52;116983.66;;;-145.39;26.93
37078;BME280;22989;55.998;37.212;2023-06-22T10:53:18;116983.66;;;-145.39;26.81
37078;BME280;22989;55.998;37.212;2023-06-22T10:55:44;116983.66;;;-145.39;26.83
37078;BME280;22989;55.998;37.212;2023-06-22T10:58:09;116983.66;;;-145.39;26.92
37078;BME280;22989;55.998;37.212;2023-06-22T11:00:35;116983.66;;;-145.39;27.08
37078;BME280;22989;55.998;37.212;2023-06-22T11:03:00;116983.66;;;-145.39;27.09
37078;BME280;22989;55.998;37.212;2023-06-22T11:05:25;116983.66;;;-145.39;27.03
37078;BME280;22989;55.998;37.212;2023-06-22T11:07:51;116983.66;;;-145.39;26.85
37078;BME280;22989;55.998;37.212;2023-06-22T11:10:16;116983.66;;;-145.39;26.88
37078;BME280;22989;55.998;37.212;2023-06-22T11:12:42;116983.66;;;-145.39;27.02
37078;BME280;22989;55.998;37.212;2023-06-22T11:15:08;116983.66;;;-145.39;27.15
37078;BME280;22989;55.998;37.212;2023-06-22T11:17:33;116983.66;;;-145.39;26.98
37078;BME280;22989;55.998;37.212;2023-06-22T11:19:59;116983.66;;;-145.39;27.05
37078;BME280;22989;55.998;37.212;2023-06-22T11:22:25;116983.66;;;-145.39;26.88
37078;BME280;22989;55.998;37.212;2023-06-22T11:24:51;116983.66;;;-145.39;26.87
37078;BME280;22989;55.998;37.212;2023-06-22T11:27:16;116983.66;;;-145.39;26.92
37078;BME280;22989;55.998;37.212;2023-06-22T11:29:42;116983.66;;;-145.39;27.18
37078;BME280;22989;55.998;37.212;2023-06-22T11:32:07;116983.66;;;-145.39;27.20
37078;BME280;22989;55.998;37.212;2023-06-22T11:34:33;116983.66;;;-145.39;27.28
37078;BME280;22989;55.998;37.212;2023-06-22T11:36:59;116983.66;;;-145.39;27.29
37078;BME280;22989;55.998;37.212;2023-06-22T11:39:24;116983.66;;;-145.39;27.06
37078;BME280;22989;55.998;37.212;2023-06-22T11:41:50;116983.66;;;-145.39;27.12
37078;BME280;22989;55.998;37.212;2023-06-22T11:44:15;116983.66;;;-145.39;27.30
37078;BME280;22989;55.998;37.212;2023-06-22T11:46:41;116983.66;;;-145.39;27.39
37078;BME280;22989;55.998;37.212;2023-06-22T11:49:06;116983.66;;;-145.39;27.41
37078;BME280;22989;55.998;37.212;2023-06-22T11:51:32;116983.66;;;-145.39;27.33
37078;BME280;22989;55.998;37.212;2023-06-22T11:53:57;116983.66;;;-145.39;27.15
37078;BME280;22989;55.998;37.212;2023-06-22T11:56:24;116983.66;;;-145.39;26.97
37078;BME280;22989;55.998;37.212;2023-06-22T11:58:49;116983.66;;;-145.39;27.13
37078;BME280;22989;55.998;37.212;2023-06-22T12:01:14;116983.66;;;-145.39;27.07
37078;BME280;22989;55.998;37.212;2023-06-22T12:03:40;116983.66;;;-145.39;27.19
37078;BME280;22989;55.998;37.212;2023-06-22T12:06:08;116983.66;;;-145.39;27.21
37078;BME280;22989;55.998;37.212;2023-06-22T12:08:34;116983.66;;;-145.39;27.28
37078;BME280;22989;55.998;37.212;2023-06-22T12:10:59;116983.66;;;-145.39;26.68
37078;BME280;22989;55.998;37.212;2023-06-22T12:13:25;116983.66;;;-145.39;26.73
37078;BME280;22989;55.998;37.212;2023-06-22T12:15:50;116983.66;;;-145.39;26.88
37078;BME280;22989;55.998;37.212;2023-06-22T12:18:17;116983.66;;;-145.39;26.92
37078;BME280;22989;55.998;37.212;2023-06-22T12:20:45;116983.66;;;-145.39;26.99
37078;BME280;22989;55.998;37.212;2023-06-22T12:23:11;116983.66;;;-145.39;27.04